createdAt,value
2022-11-01T00:00:46.067Z,18.85
2022-11-01T00:01:46.367Z,18.83
2022-11-01T00:02:46.421Z,18.79
2022-11-01T00:03:46.589Z,18.85
2022-11-01T00:04:46.772Z,18.81
2022-11-01T00:05:46.943Z,18.82
2022-11-01T00:06:47.107Z,18.82
2022-11-01T00:07:47.278Z,18.81
2022-11-01T00:08:47.461Z,18.81
2022-11-01T00:09:47.638Z,18.81
2022-11-01T00:10:47.791Z,18.79
2022-11-01T00:11:47.980Z,18.82
2022-11-01T00:12:48.134Z,18.82
2022-11-01T00:13:48.322Z,18.79
2022-11-01T00:14:48.509Z,18.78
2022-11-01T00:15:48.678Z,18.75
2022-11-01T00:16:48.863Z,18.76
2022-11-01T00:17:49.023Z,18.76
2022-11-01T00:18:49.201Z,18.73
2022-11-01T00:19:49.382Z,18.75
2022-11-01T00:20:49.546Z,18.73
2022-11-01T00:21:49.723Z,18.75
2022-11-01T00:22:49.894Z,18.72
2022-11-01T00:23:50.062Z,18.75
2022-11-01T00:24:51.418Z,18.73
2022-11-01T00:25:50.412Z,18.71
2022-11-01T00:26:50.590Z,18.73
2022-11-01T00:27:50.758Z,18.71
2022-11-01T00:28:50.946Z,18.73
2022-11-01T00:29:51.123Z,18.73
2022-11-01T00:30:51.293Z,18.71
2022-11-01T00:31:51.473Z,18.69
2022-11-01T00:32:51.647Z,18.66
2022-11-01T00:33:51.805Z,18.69
2022-11-01T00:34:51.984Z,18.69
2022-11-01T00:35:52.153Z,18.68
2022-11-01T00:36:52.315Z,18.69
2022-11-01T00:37:52.485Z,18.68
2022-11-01T00:38:52.684Z,18.64
2022-11-01T00:39:52.945Z,18.66
2022-11-01T00:42:08.061Z,18.64
2022-11-01T00:43:08.282Z,18.57
2022-11-01T00:44:08.400Z,18.57
2022-11-01T00:45:08.582Z,18.57
2022-11-01T00:46:08.741Z,18.54
2022-11-01T00:47:08.921Z,18.54
2022-11-01T00:48:09.083Z,18.58
2022-11-01T00:49:09.254Z,18.56
2022-11-01T00:50:09.463Z,18.54
2022-11-01T00:51:09.598Z,18.54
2022-11-01T00:52:09.772Z,18.53
2022-11-01T00:53:09.927Z,18.56
2022-11-01T00:54:10.102Z,18.54
2022-11-01T00:55:10.275Z,18.54
2022-11-01T00:56:10.446Z,18.54
2022-11-01T00:57:10.605Z,18.54
2022-11-01T00:58:10.776Z,18.54
2022-11-01T00:59:10.947Z,18.54
2022-11-01T01:00:11.136Z,18.57
2022-11-01T01:01:11.354Z,18.53
2022-11-01T01:02:11.644Z,18.51
2022-11-01T01:03:11.668Z,18.53
2022-11-01T01:04:11.837Z,18.51
2022-11-01T01:05:12.027Z,18.46
2022-11-01T01:06:12.187Z,18.48
2022-11-01T01:07:12.367Z,18.50
2022-11-01T01:08:12.541Z,18.50
2022-11-01T01:09:12.689Z,18.44
2022-11-01T01:10:12.865Z,18.46
2022-11-01T01:11:13.032Z,18.48
2022-11-01T01:12:13.220Z,18.46
2022-11-01T01:13:13.379Z,18.48
2022-11-01T01:14:13.552Z,18.44
2022-11-01T01:15:13.721Z,18.50
2022-11-01T01:16:13.901Z,18.46
2022-11-01T01:17:14.074Z,18.46
2022-11-01T01:18:14.233Z,18.42
2022-11-01T01:19:14.403Z,18.42
2022-11-01T01:20:14.598Z,18.41
2022-11-01T01:21:14.768Z,18.44
2022-11-01T01:22:14.937Z,18.46
2022-11-01T01:23:15.103Z,18.44
2022-11-01T01:24:15.255Z,18.42
2022-11-01T01:25:15.442Z,18.40
2022-11-01T01:26:15.612Z,18.41
2022-11-01T01:27:15.771Z,18.41
2022-11-01T01:28:15.944Z,18.38
2022-11-01T01:29:16.125Z,18.37
2022-11-01T01:30:16.285Z,18.38
2022-11-01T01:31:16.454Z,18.38
2022-11-01T01:32:16.638Z,18.38
2022-11-01T01:33:16.806Z,18.38
2022-11-01T01:34:16.985Z,18.37
2022-11-01T01:35:17.172Z,18.38
2022-11-01T01:36:17.324Z,18.37
2022-11-01T01:37:17.496Z,18.38
2022-11-01T01:38:17.695Z,18.38
2022-11-01T01:39:17.854Z,18.34
2022-11-01T01:40:18.035Z,18.34
2022-11-01T01:41:18.192Z,18.38
2022-11-01T01:42:18.381Z,18.33
2022-11-01T01:43:18.540Z,18.33
2022-11-01T01:44:18.745Z,18.33
2022-11-01T01:45:18.898Z,18.31
2022-11-01T01:46:19.071Z,18.33
2022-11-01T01:47:19.239Z,18.31
2022-11-01T01:48:19.410Z,18.31
2022-11-01T01:49:19.606Z,18.31
2022-11-01T01:50:19.734Z,18.27
2022-11-01T01:51:19.901Z,18.30
2022-11-01T01:52:20.080Z,18.27
2022-11-01T01:53:20.300Z,18.30
2022-11-01T01:54:20.453Z,18.26
2022-11-01T01:55:20.622Z,18.27
2022-11-01T01:56:20.800Z,18.27
2022-11-01T01:57:20.964Z,18.26
2022-11-01T01:58:21.154Z,18.26
2022-11-01T01:59:21.313Z,18.27
2022-11-01T02:00:21.516Z,18.23
2022-11-01T02:01:21.773Z,18.22
2022-11-01T02:02:21.948Z,18.26
2022-11-01T02:03:22.004Z,18.25
2022-11-01T02:04:22.175Z,18.22
2022-11-01T02:05:22.355Z,18.20
2022-11-01T02:07:22.705Z,18.19
2022-11-01T02:08:22.878Z,18.19
2022-11-01T02:09:24.178Z,18.17
2022-11-01T02:10:23.234Z,18.20
2022-11-01T02:11:23.416Z,18.16
2022-11-01T02:12:23.582Z,18.17
2022-11-01T02:13:23.750Z,18.20
2022-11-01T02:14:23.926Z,18.17
2022-11-01T02:15:24.113Z,18.15
2022-11-01T02:16:24.285Z,18.17
2022-11-01T02:17:24.439Z,18.19
2022-11-01T02:18:24.609Z,18.17
2022-11-01T02:19:24.791Z,18.13
2022-11-01T02:20:24.983Z,18.16
2022-11-01T02:21:25.157Z,18.13
2022-11-01T02:22:25.333Z,18.16
2022-11-01T02:23:25.607Z,18.15
2022-11-01T02:24:25.671Z,18.15
2022-11-01T02:25:25.830Z,18.16
2022-11-01T02:26:26.021Z,18.15
2022-11-01T02:27:26.172Z,18.10
2022-11-01T02:28:26.348Z,18.15
2022-11-01T02:29:26.512Z,18.12
2022-11-01T02:30:26.692Z,18.12
2022-11-01T02:31:26.849Z,18.13
2022-11-01T02:32:27.018Z,18.12
2022-11-01T02:33:27.188Z,18.10
2022-11-01T02:34:27.362Z,18.10
2022-11-01T02:35:27.547Z,18.10
2022-11-01T02:36:27.724Z,18.12
2022-11-01T02:37:27.875Z,18.12
2022-11-01T02:38:28.051Z,18.08
2022-11-01T02:39:28.216Z,18.05
2022-11-01T02:40:28.407Z,18.05
2022-11-01T02:41:28.564Z,18.10
2022-11-01T02:42:28.746Z,18.07
2022-11-01T02:43:28.917Z,18.07
2022-11-01T02:44:29.077Z,18.07
2022-11-01T02:45:29.294Z,18.04
2022-11-01T02:46:29.439Z,18.07
2022-11-01T02:47:29.623Z,18.07
2022-11-01T02:48:29.787Z,18.05
2022-11-01T02:49:29.972Z,18.07
2022-11-01T02:50:30.145Z,18.05
2022-11-01T02:51:30.302Z,18.04
2022-11-01T02:52:30.510Z,18.02
2022-11-01T02:53:30.651Z,18.02
2022-11-01T02:54:30.813Z,18.01
2022-11-01T02:55:31.103Z,18.01
2022-11-01T02:56:31.196Z,18.01
2022-11-01T02:57:31.391Z,18.02
2022-11-01T02:58:31.521Z,17.98
2022-11-01T02:59:31.689Z,18.00
2022-11-01T03:00:31.863Z,18.01
2022-11-01T03:01:32.144Z,18.00
2022-11-01T03:02:32.246Z,17.98
2022-11-01T03:03:32.408Z,17.98
2022-11-01T03:04:32.575Z,18.01
2022-11-01T03:05:32.745Z,17.97
2022-11-01T03:06:32.924Z,18.00
2022-11-01T03:07:33.096Z,17.98
2022-11-01T03:08:33.264Z,17.98
2022-11-01T03:09:33.419Z,17.95
2022-11-01T03:10:33.594Z,17.97
2022-11-01T03:11:33.786Z,17.98
2022-11-01T03:12:33.939Z,17.95
2022-11-01T03:13:34.117Z,17.95
2022-11-01T03:14:34.288Z,17.97
2022-11-01T03:15:34.468Z,17.95
2022-11-01T03:16:34.644Z,17.94
2022-11-01T03:17:34.805Z,17.92
2022-11-01T03:18:34.980Z,17.94
2022-11-01T03:19:35.181Z,17.94
2022-11-01T03:20:35.357Z,17.89
2022-11-01T03:21:35.521Z,17.87
2022-11-01T03:22:35.697Z,17.90
2022-11-01T03:23:35.877Z,17.89
2022-11-01T03:24:36.039Z,17.92
2022-11-01T03:25:36.218Z,17.87
2022-11-01T03:26:36.389Z,17.89
2022-11-01T03:27:36.551Z,17.89
2022-11-01T03:28:36.720Z,17.86
2022-11-01T03:29:36.897Z,17.89
2022-11-01T03:30:37.084Z,17.86
2022-11-01T03:31:37.247Z,17.85
2022-11-01T03:32:37.437Z,17.85
2022-11-01T03:33:37.612Z,17.82
2022-11-01T03:34:37.790Z,17.86
2022-11-01T03:35:37.951Z,17.85
2022-11-01T03:36:38.124Z,17.83
2022-11-01T03:37:38.284Z,17.85
2022-11-01T03:38:38.463Z,17.85
2022-11-01T03:39:38.651Z,17.79
2022-11-01T03:40:38.813Z,17.79
2022-11-01T03:41:38.985Z,17.80
2022-11-01T03:42:39.163Z,17.78
2022-11-01T03:43:39.320Z,17.80
2022-11-01T03:44:39.507Z,17.79
2022-11-01T03:45:39.675Z,17.82
2022-11-01T03:46:39.857Z,17.82
2022-11-01T03:47:40.025Z,17.78
2022-11-01T03:48:40.189Z,17.76
2022-11-01T03:49:40.372Z,17.76
2022-11-01T03:50:40.559Z,17.76
2022-11-01T03:51:40.735Z,17.76
2022-11-01T03:52:40.893Z,17.76
2022-11-01T03:53:41.090Z,17.78
2022-11-01T03:54:41.246Z,17.76
2022-11-01T03:55:41.393Z,17.70
2022-11-01T03:56:41.584Z,17.70
2022-11-01T03:57:41.745Z,17.75
2022-11-01T03:58:42.098Z,17.75
2022-11-01T03:59:42.102Z,17.68
2022-11-01T04:00:42.316Z,17.70
2022-11-01T04:01:42.543Z,17.67
2022-11-01T04:02:42.587Z,17.68
2022-11-01T04:03:42.756Z,17.70
2022-11-01T04:04:42.942Z,17.70
2022-11-01T04:05:43.102Z,17.68
2022-11-01T04:06:43.280Z,17.68
2022-11-01T04:07:43.451Z,17.67
2022-11-01T04:08:43.622Z,17.70
2022-11-01T04:09:43.804Z,17.68
2022-11-01T04:10:43.994Z,17.68
2022-11-01T04:11:44.154Z,17.65
2022-11-01T04:12:44.332Z,17.68
2022-11-01T04:13:44.504Z,17.65
2022-11-01T04:14:44.695Z,17.62
2022-11-01T04:15:44.865Z,17.62
2022-11-01T04:16:45.035Z,17.62
2022-11-01T04:17:45.207Z,17.62
2022-11-01T04:18:45.376Z,17.61
2022-11-01T04:19:45.557Z,17.62
2022-11-01T04:20:45.737Z,17.65
2022-11-01T04:21:45.904Z,17.62
2022-11-01T04:22:46.081Z,17.61
2022-11-01T04:23:46.272Z,17.61
2022-11-01T04:24:46.438Z,17.61
2022-11-01T04:25:46.597Z,17.61
2022-11-01T04:26:46.775Z,17.61
2022-11-01T04:27:46.929Z,17.58
2022-11-01T04:28:47.110Z,17.61
2022-11-01T04:29:47.297Z,17.58
2022-11-01T04:30:47.471Z,17.60
2022-11-01T04:31:47.631Z,17.58
2022-11-01T04:32:47.816Z,17.58
2022-11-01T04:33:47.969Z,17.58
2022-11-01T04:34:48.187Z,17.55
2022-11-01T04:35:48.321Z,17.55
2022-11-01T04:36:48.501Z,17.53
2022-11-01T04:37:48.663Z,17.55
2022-11-01T04:38:48.833Z,17.55
2022-11-01T04:39:49.026Z,17.53
2022-11-01T04:40:49.206Z,17.55
2022-11-01T04:41:49.355Z,17.53
2022-11-01T04:42:49.526Z,17.50
2022-11-01T04:43:49.704Z,17.53
2022-11-01T04:44:49.914Z,17.52
2022-11-01T04:45:50.036Z,17.53
2022-11-01T04:46:50.215Z,17.52
2022-11-01T04:47:50.380Z,17.53
2022-11-01T04:48:50.551Z,17.50
2022-11-01T04:49:50.745Z,17.49
2022-11-01T04:50:50.907Z,17.49
2022-11-01T04:51:51.080Z,17.53
2022-11-01T04:52:51.254Z,17.49
2022-11-01T04:53:51.415Z,17.50
2022-11-01T04:54:51.601Z,17.49
2022-11-01T04:55:51.777Z,17.50
2022-11-01T04:56:51.943Z,17.47
2022-11-01T04:57:52.113Z,17.47
2022-11-01T04:58:52.288Z,17.47
2022-11-01T04:59:52.449Z,17.49
2022-11-01T05:00:52.686Z,17.49
2022-11-01T05:01:52.906Z,17.47
2022-11-01T05:02:52.967Z,17.46
2022-11-01T05:03:53.130Z,17.49
2022-11-01T05:04:53.314Z,17.49
2022-11-01T05:05:53.479Z,17.47
2022-11-01T05:06:53.662Z,17.46
2022-11-01T05:07:53.893Z,17.47
2022-11-01T05:08:53.991Z,17.49
2022-11-01T05:09:54.156Z,17.47
2022-11-01T05:10:54.310Z,17.47
2022-11-01T05:11:54.527Z,17.47
2022-11-01T05:12:54.643Z,17.45
2022-11-01T05:13:54.823Z,17.46
2022-11-01T05:14:56.797Z,17.46
2022-11-01T05:16:17.980Z,17.45
2022-11-01T05:16:56.384Z,17.45
2022-11-01T05:17:55.538Z,17.43
2022-11-01T05:18:55.705Z,17.45
2022-11-01T05:19:55.876Z,17.46
2022-11-01T05:20:56.055Z,17.43
2022-11-01T05:21:56.245Z,17.46
2022-11-01T05:22:56.407Z,17.43
2022-11-01T05:23:56.578Z,17.43
2022-11-01T05:24:56.736Z,17.40
2022-11-01T05:25:56.910Z,17.45
2022-11-01T05:26:57.087Z,17.42
2022-11-01T05:27:57.272Z,17.43
2022-11-01T05:28:57.436Z,17.42
2022-11-01T05:29:57.612Z,17.43
2022-11-01T05:30:57.776Z,17.45
2022-11-01T05:31:57.959Z,17.42
2022-11-01T05:32:58.154Z,17.42
2022-11-01T05:33:58.319Z,17.40
2022-11-01T05:34:58.479Z,17.42
2022-11-01T05:35:58.656Z,17.43
2022-11-01T05:36:58.835Z,17.43
2022-11-01T05:37:59.120Z,17.42
2022-11-01T05:38:59.175Z,17.40
2022-11-01T05:39:59.363Z,17.43
2022-11-01T05:40:59.566Z,17.43
2022-11-01T05:42:02.662Z,17.43
2022-11-01T05:43:00.244Z,17.40
2022-11-01T05:44:00.063Z,17.42
2022-11-01T05:45:00.228Z,17.39
2022-11-01T05:46:00.405Z,17.39
2022-11-01T05:47:00.587Z,17.42
2022-11-01T05:48:00.747Z,17.42
2022-11-01T05:49:00.910Z,17.39
2022-11-01T05:50:01.079Z,17.40
2022-11-01T05:51:01.249Z,17.42
2022-11-01T05:52:01.442Z,17.40
2022-11-01T05:53:01.963Z,17.39
2022-11-01T05:54:01.791Z,17.39
2022-11-01T05:55:01.956Z,17.38
2022-11-01T05:56:02.126Z,17.39
2022-11-01T05:57:02.316Z,17.42
2022-11-01T05:58:02.476Z,17.38
2022-11-01T05:59:02.646Z,17.40
2022-11-01T06:00:02.825Z,17.40
2022-11-01T06:01:02.977Z,17.38
2022-11-01T06:02:03.284Z,17.39
2022-11-01T06:03:03.608Z,17.40
2022-11-01T06:04:03.504Z,17.40
2022-11-01T06:05:03.680Z,17.39
2022-11-01T06:06:03.846Z,17.40
2022-11-01T06:07:04.030Z,17.39
2022-11-01T06:08:04.251Z,17.38
2022-11-01T06:09:04.363Z,17.39
2022-11-01T06:10:04.535Z,17.39
2022-11-01T06:11:04.709Z,17.35
2022-11-01T06:12:04.898Z,17.38
2022-11-01T06:13:05.404Z,17.39
2022-11-01T06:14:05.221Z,17.39
2022-11-01T06:15:05.392Z,17.40
2022-11-01T06:16:05.562Z,17.39
2022-11-01T06:17:05.746Z,17.40
2022-11-01T06:18:06.442Z,17.42
2022-11-01T06:19:06.100Z,17.40
2022-11-01T06:20:06.442Z,17.43
2022-11-01T06:21:06.455Z,17.40
2022-11-01T06:22:06.656Z,17.38
2022-11-01T06:23:06.785Z,17.39
2022-11-01T06:24:06.961Z,17.42
2022-11-01T06:25:07.131Z,17.40
2022-11-01T06:26:07.303Z,17.40
2022-11-01T06:27:11.620Z,17.40
2022-11-01T06:28:07.644Z,17.38
2022-11-01T06:29:07.810Z,17.38
2022-11-01T06:30:07.987Z,17.40
2022-11-01T06:31:08.167Z,17.40
2022-11-01T06:32:08.356Z,17.38
2022-11-01T06:33:08.494Z,17.42
2022-11-01T06:34:08.666Z,17.40
2022-11-01T06:35:08.829Z,17.40
2022-11-01T06:36:08.999Z,17.39
2022-11-01T06:37:09.198Z,17.40
2022-11-01T06:38:09.358Z,17.39
2022-11-01T06:39:09.531Z,17.43
2022-11-01T06:40:09.719Z,17.40
2022-11-01T06:41:09.908Z,17.40
2022-11-01T06:42:10.123Z,17.39
2022-11-01T06:43:10.275Z,17.42
2022-11-01T06:44:10.425Z,17.39
2022-11-01T06:45:10.606Z,17.43
2022-11-01T06:46:10.797Z,17.42
2022-11-01T06:47:10.981Z,17.42
2022-11-01T06:48:11.152Z,17.42
2022-11-01T06:49:16.317Z,17.42
2022-11-01T06:50:12.487Z,17.43
2022-11-01T06:51:11.653Z,17.46
2022-11-01T06:52:11.876Z,17.42
2022-11-01T06:53:11.993Z,17.43
2022-11-01T06:54:12.186Z,17.40
2022-11-01T06:55:12.334Z,17.45
2022-11-01T06:56:12.524Z,17.43
2022-11-01T06:57:12.734Z,17.45
2022-11-01T06:58:12.880Z,17.40
2022-11-01T06:59:13.065Z,17.43
2022-11-01T07:00:13.245Z,17.42
2022-11-01T07:01:13.511Z,17.43
2022-11-01T07:02:14.673Z,17.46
2022-11-01T07:03:13.776Z,17.45
2022-11-01T07:04:13.969Z,17.43
2022-11-01T07:05:14.156Z,17.45
2022-11-01T07:06:14.325Z,17.43
2022-11-01T07:07:14.458Z,17.46
2022-11-01T07:08:14.658Z,17.45
2022-11-01T07:09:14.799Z,17.45
2022-11-01T07:10:14.989Z,17.46
2022-11-01T07:11:15.209Z,17.47
2022-11-01T07:12:15.358Z,17.47
2022-11-01T07:13:15.544Z,17.45
2022-11-01T07:14:15.735Z,17.46
2022-11-01T07:15:15.919Z,17.47
2022-11-01T07:16:16.143Z,17.46
2022-11-01T07:17:16.289Z,17.49
2022-11-01T07:18:16.492Z,17.46
2022-11-01T07:19:16.641Z,17.49
2022-11-01T07:20:16.862Z,17.49
2022-11-01T07:21:16.973Z,17.47
2022-11-01T07:22:17.163Z,17.50
2022-11-01T07:23:17.346Z,17.50
2022-11-01T07:24:17.531Z,17.50
2022-11-01T07:25:17.728Z,17.52
2022-11-01T07:26:17.886Z,17.46
2022-11-01T07:27:20.501Z,17.53
2022-11-01T07:28:18.258Z,17.50
2022-11-01T07:29:18.441Z,17.57
2022-11-01T07:30:18.664Z,17.53
2022-11-01T07:31:18.776Z,17.58
2022-11-01T07:32:18.950Z,17.57
2022-11-01T07:33:19.106Z,17.55
2022-11-01T07:34:19.296Z,17.58
2022-11-01T07:35:19.467Z,17.61
2022-11-01T07:36:19.620Z,17.58
2022-11-01T07:37:19.831Z,17.60
2022-11-01T07:38:19.987Z,17.62
2022-11-01T07:39:20.187Z,17.58
2022-11-01T07:40:20.345Z,17.58
2022-11-01T07:41:20.539Z,17.65
2022-11-01T07:42:20.701Z,17.65
2022-11-01T07:43:20.889Z,17.62
2022-11-01T07:44:21.019Z,17.62
2022-11-01T07:45:21.213Z,17.65
2022-11-01T07:46:21.371Z,17.61
2022-11-01T07:47:21.626Z,17.67
2022-11-01T07:48:21.772Z,17.67
2022-11-01T07:49:21.910Z,17.65
2022-11-01T07:50:22.085Z,17.70
2022-11-01T07:51:22.263Z,17.70
2022-11-01T07:52:22.451Z,17.72
2022-11-01T07:53:22.616Z,17.76
2022-11-01T07:54:22.773Z,17.80
2022-11-01T07:55:22.947Z,17.82
2022-11-01T07:56:23.127Z,17.83
2022-11-01T07:57:23.303Z,17.85
2022-11-01T07:58:23.509Z,17.89
2022-11-01T07:59:23.647Z,17.92
2022-11-01T08:00:23.871Z,17.97
2022-11-01T08:01:24.058Z,18.00
2022-11-01T08:02:24.279Z,18.04
2022-11-01T08:03:24.346Z,18.10
2022-11-01T08:04:24.499Z,18.13
2022-11-01T08:05:24.654Z,18.17
2022-11-01T08:06:24.838Z,18.23
2022-11-01T08:07:25.008Z,18.20
2022-11-01T08:08:25.214Z,18.27
2022-11-01T08:09:25.355Z,18.31
2022-11-01T08:10:25.657Z,18.34
2022-11-01T08:11:25.696Z,18.34
2022-11-01T08:12:25.884Z,18.37
2022-11-01T08:13:26.068Z,18.42
2022-11-01T08:14:26.238Z,18.46
2022-11-01T08:15:26.396Z,18.51
2022-11-01T08:16:26.559Z,18.54
2022-11-01T08:17:26.740Z,18.57
2022-11-01T08:18:26.953Z,18.63
2022-11-01T08:19:27.109Z,18.68
2022-11-01T08:20:27.265Z,18.72
2022-11-01T08:21:27.453Z,18.78
2022-11-01T08:22:27.641Z,18.81
2022-11-01T08:23:27.818Z,18.83
2022-11-01T08:24:27.971Z,18.93
2022-11-01T08:25:28.151Z,18.97
2022-11-01T08:26:28.326Z,19.06
2022-11-01T08:27:31.499Z,19.08
2022-11-01T08:28:29.700Z,19.12
2022-11-01T08:29:28.828Z,19.16
2022-11-01T08:30:29.012Z,19.12
2022-11-01T08:31:29.167Z,19.15
2022-11-01T08:32:29.354Z,19.16
2022-11-01T08:33:29.513Z,19.12
2022-11-01T08:34:29.684Z,19.13
2022-11-01T08:35:29.834Z,19.13
2022-11-01T08:36:30.016Z,19.15
2022-11-01T08:37:30.197Z,19.16
2022-11-01T08:38:30.376Z,19.16
2022-11-01T08:39:30.567Z,19.13
2022-11-01T08:40:30.717Z,19.19
2022-11-01T08:41:30.876Z,19.16
2022-11-01T08:42:31.065Z,19.19
2022-11-01T08:43:31.217Z,19.24
2022-11-01T08:44:31.412Z,19.22
2022-11-01T08:45:31.574Z,19.22
2022-11-01T08:46:31.743Z,19.28
2022-11-01T08:47:31.898Z,19.28
2022-11-01T08:48:32.070Z,19.27
2022-11-01T08:49:32.260Z,19.30
2022-11-01T08:50:32.420Z,19.34
2022-11-01T08:51:32.603Z,19.34
2022-11-01T08:52:32.786Z,19.34
2022-11-01T08:53:32.936Z,19.37
2022-11-01T08:54:33.144Z,19.40
2022-11-01T08:55:37.425Z,19.43
2022-11-01T08:56:33.451Z,19.42
2022-11-01T08:57:33.612Z,19.46
2022-11-01T08:58:33.786Z,19.49
2022-11-01T08:59:33.971Z,19.58
2022-11-01T09:00:34.145Z,19.63
2022-11-01T09:01:34.483Z,19.59
2022-11-01T09:02:34.556Z,19.68
2022-11-01T09:03:34.684Z,19.68
2022-11-01T09:04:34.868Z,19.71
2022-11-01T09:05:35.025Z,19.73
2022-11-01T09:06:36.461Z,19.77
2022-11-01T09:07:35.369Z,19.81
2022-11-01T09:08:35.565Z,19.82
2022-11-01T09:09:35.709Z,19.86
2022-11-01T09:10:35.892Z,19.85
2022-11-01T09:11:36.048Z,19.93
2022-11-01T09:12:36.311Z,19.94
2022-11-01T09:13:36.426Z,19.96
2022-11-01T09:14:36.598Z,19.98
2022-11-01T09:15:36.765Z,20.02
2022-11-01T09:16:36.927Z,20.05
2022-11-01T09:17:37.115Z,20.08
2022-11-01T09:18:37.287Z,20.09
2022-11-01T09:19:37.428Z,20.12
2022-11-01T09:20:37.611Z,20.11
2022-11-01T09:21:37.797Z,20.09
2022-11-01T09:22:37.948Z,20.15
2022-11-01T09:23:38.160Z,20.17
2022-11-01T09:24:38.304Z,20.14
2022-11-01T09:25:38.482Z,20.15
2022-11-01T09:26:38.641Z,20.17
2022-11-01T09:27:38.931Z,20.17
2022-11-01T09:28:38.991Z,20.15
2022-11-01T09:29:39.164Z,20.15
2022-11-01T09:30:45.219Z,20.14
2022-11-01T09:31:40.482Z,20.11
2022-11-01T09:32:39.660Z,20.12
2022-11-01T09:33:39.852Z,20.11
2022-11-01T09:34:39.974Z,20.09
2022-11-01T09:35:40.133Z,20.09
2022-11-01T09:36:40.299Z,20.08
2022-11-01T09:37:40.476Z,20.08
2022-11-01T09:38:40.648Z,20.06
2022-11-01T09:39:40.805Z,20.11
2022-11-01T09:40:40.960Z,20.11
2022-11-01T09:41:41.150Z,20.11
2022-11-01T09:42:41.326Z,20.12
2022-11-01T09:43:41.506Z,20.12
2022-11-01T09:44:41.754Z,20.12
2022-11-01T09:45:41.841Z,20.12
2022-11-01T09:46:41.996Z,20.14
2022-11-01T09:47:42.193Z,20.15
2022-11-01T09:48:42.339Z,20.17
2022-11-01T09:49:42.502Z,20.17
2022-11-01T09:50:42.675Z,20.19
2022-11-01T09:51:42.861Z,20.20
2022-11-01T09:52:43.048Z,20.20
2022-11-01T09:53:43.200Z,20.20
2022-11-01T09:54:43.379Z,20.20
2022-11-01T09:55:43.568Z,20.23
2022-11-01T09:56:43.740Z,20.24
2022-11-01T09:57:43.935Z,20.27
2022-11-01T09:58:44.120Z,20.27
2022-11-01T09:59:44.289Z,20.27
2022-11-01T10:00:44.466Z,20.27
2022-11-01T10:01:44.722Z,20.30
2022-11-01T10:02:44.783Z,20.30
2022-11-01T10:03:44.981Z,20.33
2022-11-01T10:04:45.146Z,20.31
2022-11-01T10:05:45.329Z,20.31
2022-11-01T10:06:45.508Z,20.36
2022-11-01T10:07:45.684Z,20.38
2022-11-01T10:08:45.885Z,20.41
2022-11-01T10:09:46.056Z,20.39
2022-11-01T10:10:46.225Z,20.41
2022-11-01T10:11:46.410Z,20.41
2022-11-01T10:12:46.586Z,20.45
2022-11-01T10:13:47.016Z,20.46
2022-11-01T10:14:46.948Z,20.46
2022-11-01T10:15:47.128Z,20.49
2022-11-01T10:16:47.285Z,20.51
2022-11-01T10:17:51.889Z,20.51
2022-11-01T10:18:48.646Z,20.56
2022-11-01T10:19:47.827Z,20.56
2022-11-01T10:20:47.999Z,20.56
2022-11-01T10:21:48.168Z,20.60
2022-11-01T10:22:48.348Z,20.60
2022-11-01T10:23:48.547Z,20.60
2022-11-01T10:24:48.710Z,20.63
2022-11-01T10:25:48.919Z,20.64
2022-11-01T10:26:49.063Z,20.66
2022-11-01T10:27:49.257Z,20.70
2022-11-01T10:28:49.440Z,20.74
2022-11-01T10:29:49.590Z,20.74
2022-11-01T10:30:49.772Z,20.74
2022-11-01T10:31:49.962Z,20.76
2022-11-01T10:32:50.121Z,20.76
2022-11-01T10:33:50.314Z,20.78
2022-11-01T10:34:50.483Z,20.81
2022-11-01T10:35:50.663Z,20.79
2022-11-01T10:36:50.849Z,20.84
2022-11-01T10:38:04.089Z,20.84
2022-11-01T10:39:44.459Z,20.88
2022-11-01T10:39:55.389Z,20.91
2022-11-01T10:40:51.568Z,20.89
2022-11-01T10:41:51.735Z,20.94
2022-11-01T10:42:51.914Z,20.97
2022-11-01T10:43:52.095Z,20.99
2022-11-01T10:44:52.294Z,21.04
2022-11-01T10:45:52.469Z,21.04
2022-11-01T10:46:52.631Z,21.15
2022-11-01T10:47:52.808Z,21.21
2022-11-01T10:48:52.998Z,21.29
2022-11-01T10:50:05.433Z,21.41
2022-11-01T10:50:54.353Z,21.50
2022-11-01T10:51:53.538Z,21.57
2022-11-01T10:52:53.733Z,21.63
2022-11-01T10:53:53.881Z,21.82
2022-11-01T10:54:54.065Z,21.97
2022-11-01T10:55:54.261Z,22.06
2022-11-01T10:56:54.414Z,22.09
2022-11-01T10:57:54.602Z,22.15
2022-11-01T10:58:54.772Z,22.18
2022-11-01T10:59:54.976Z,22.21
2022-11-01T11:00:55.144Z,22.23
2022-11-01T11:01:55.375Z,22.26
2022-11-01T11:02:55.478Z,22.30
2022-11-01T11:03:55.673Z,22.30
2022-11-01T11:04:55.854Z,22.31
2022-11-01T11:05:56.009Z,22.30
2022-11-01T11:06:56.236Z,22.36
2022-11-01T11:07:56.384Z,22.34
2022-11-01T11:08:56.544Z,22.36
2022-11-01T11:09:56.776Z,22.34
2022-11-01T11:10:56.915Z,22.31
2022-11-01T11:11:57.076Z,22.31
2022-11-01T11:12:57.260Z,22.30
2022-11-01T11:13:57.446Z,22.31
2022-11-01T11:14:57.616Z,22.31
2022-11-01T11:15:57.813Z,22.29
2022-11-01T11:16:57.981Z,22.24
2022-11-01T11:17:58.138Z,22.26
2022-11-01T11:18:58.316Z,22.27
2022-11-01T11:19:58.477Z,22.27
2022-11-01T11:20:58.707Z,22.26
2022-11-01T11:21:58.871Z,22.21
2022-11-01T11:22:59.046Z,22.18
2022-11-01T11:23:59.210Z,22.15
2022-11-01T11:24:59.379Z,22.14
2022-11-01T11:25:59.560Z,22.15
2022-11-01T11:26:59.737Z,22.14
2022-11-01T11:28:00.346Z,22.12
2022-11-01T11:29:00.091Z,22.09
2022-11-01T11:30:00.288Z,22.11
2022-11-01T11:31:00.457Z,22.05
2022-11-01T11:32:00.621Z,22.05
2022-11-01T11:33:00.781Z,22.02
2022-11-01T11:34:00.963Z,21.96
2022-11-01T11:35:01.150Z,21.96
2022-11-01T11:36:01.311Z,21.94
2022-11-01T11:37:01.484Z,21.92
2022-11-01T11:38:02.065Z,21.89
2022-11-01T11:39:01.872Z,21.89
2022-11-01T11:40:02.056Z,21.86
2022-11-01T11:41:02.224Z,21.82
2022-11-01T11:42:02.409Z,21.81
2022-11-01T11:43:02.600Z,21.79
2022-11-01T11:44:02.780Z,21.74
2022-11-01T11:45:02.915Z,21.77
2022-11-01T11:46:03.123Z,21.77
2022-11-01T11:47:03.288Z,21.74
2022-11-01T11:48:03.833Z,21.72
2022-11-01T11:49:03.677Z,21.75
2022-11-01T11:50:03.843Z,21.75
2022-11-01T11:51:04.020Z,21.78
2022-11-01T11:52:04.208Z,21.78
2022-11-01T11:53:04.383Z,21.78
2022-11-01T11:54:04.568Z,21.78
2022-11-01T11:55:04.733Z,21.79
2022-11-01T11:56:04.910Z,21.78
2022-11-01T11:57:05.064Z,21.78
2022-11-01T11:58:05.530Z,21.81
2022-11-01T11:59:08.470Z,21.77
2022-11-01T12:00:05.740Z,21.81
2022-11-01T12:01:05.786Z,21.78
2022-11-01T12:02:06.069Z,21.82
2022-11-01T12:03:06.797Z,21.82
2022-11-01T12:04:06.317Z,21.84
2022-11-01T12:05:06.494Z,21.84
2022-11-01T12:06:06.681Z,21.86
2022-11-01T12:07:06.847Z,21.89
2022-11-01T12:08:07.035Z,21.87
2022-11-01T12:09:07.217Z,21.89
2022-11-01T12:10:07.415Z,21.90
2022-11-01T12:11:07.575Z,21.90
2022-11-01T12:12:07.764Z,21.90
2022-11-01T12:13:07.957Z,21.92
2022-11-01T12:14:08.106Z,21.97
2022-11-01T12:15:08.289Z,21.97
2022-11-01T12:16:08.467Z,22.00
2022-11-01T12:17:08.647Z,21.99
2022-11-01T12:18:12.878Z,22.05
2022-11-01T12:19:09.997Z,22.06
2022-11-01T12:20:09.180Z,22.06
2022-11-01T12:21:09.353Z,22.12
2022-11-01T12:22:09.547Z,22.09
2022-11-01T12:23:09.719Z,22.14
2022-11-01T12:24:09.883Z,22.15
2022-11-01T12:25:10.081Z,22.16
2022-11-01T12:26:13.929Z,22.15
2022-11-01T12:27:11.391Z,22.16
2022-11-01T12:28:10.571Z,22.19
2022-11-01T12:29:10.746Z,22.18
2022-11-01T12:30:10.956Z,22.15
2022-11-01T12:31:11.121Z,22.15
2022-11-01T12:32:11.305Z,22.18
2022-11-01T12:33:11.525Z,22.16
2022-11-01T12:34:11.678Z,22.12
2022-11-01T12:35:11.841Z,22.14
2022-11-01T12:36:12.019Z,22.11
2022-11-01T12:37:12.175Z,22.11
2022-11-01T12:38:12.347Z,22.06
2022-11-01T12:39:12.525Z,22.06
2022-11-01T12:40:12.745Z,22.09
2022-11-01T12:41:12.861Z,22.06
2022-11-01T12:42:13.037Z,22.08
2022-11-01T12:43:13.185Z,22.08
2022-11-01T12:44:13.402Z,22.06
2022-11-01T12:45:13.576Z,22.11
2022-11-01T12:46:13.731Z,22.12
2022-11-01T12:47:13.887Z,22.16
2022-11-01T12:48:14.053Z,22.24
2022-11-01T12:49:14.224Z,22.24
2022-11-01T12:50:14.400Z,22.37
2022-11-01T12:51:14.588Z,22.51
2022-11-01T12:52:14.760Z,22.60
2022-11-01T12:53:14.930Z,22.70
2022-11-01T12:54:15.115Z,22.74
2022-11-01T12:55:18.072Z,22.82
2022-11-01T12:56:16.459Z,22.86
2022-11-01T12:57:15.644Z,22.90